sensor_id;sensor_type;location;lat;lon;timestamp;P1;durP1;ratioP1;P2;durP2;ratioP2
72949;SDS011;64868;45.710;9.590;2023-09-19T00:01:20;6.97;;;2.10;;
72949;SDS011;64868;45.710;9.590;2023-09-19T00:03:53;7.57;;;2.25;;
72949;SDS011;64868;45.710;9.590;2023-09-19T00:06:25;6.03;;;2.28;;
72949;SDS011;64868;45.710;9.590;2023-09-19T00:09:00;10.30;;;2.65;;
72949;SDS011;64868;45.710;9.590;2023-09-19T00:11:30;6.38;;;2.40;;
72949;SDS011;64868;45.710;9.590;2023-09-19T00:14:03;7.97;;;3.22;;
72949;SDS011;64868;45.710;9.590;2023-09-19T00:16:36;6.90;;;1.98;;
72949;SDS011;64868;45.710;9.590;2023-09-19T00:19:04;7.70;;;2.65;;
72949;SDS011;64868;45.710;9.590;2023-09-19T00:21:36;6.45;;;2.00;;
72949;SDS011;64868;45.710;9.590;2023-09-19T00:24:09;10.13;;;2.70;;
72949;SDS011;64868;45.710;9.590;2023-09-19T00:26:41;5.82;;;2.33;;
72949;SDS011;64868;45.710;9.590;2023-09-19T00:29:14;5.95;;;2.33;;
72949;SDS011;64868;45.710;9.590;2023-09-19T00:31:47;10.73;;;2.22;;
72949;SDS011;64868;45.710;9.590;2023-09-19T00:34:17;9.45;;;2.78;;
72949;SDS011;64868;45.710;9.590;2023-09-19T00:36:50;7.47;;;2.70;;
72949;SDS011;64868;45.710;9.590;2023-09-19T00:39:23;8.45;;;2.75;;
72949;SDS011;64868;45.710;9.590;2023-09-19T00:41:55;6.78;;;2.63;;
72949;SDS011;64868;45.710;9.590;2023-09-19T00:44:32;6.35;;;2.38;;
72949;SDS011;64868;45.710;9.590;2023-09-19T00:47:02;8.90;;;2.90;;
72949;SDS011;64868;45.710;9.590;2023-09-19T00:49:36;7.22;;;2.47;;
72949;SDS011;64868;45.710;9.590;2023-09-19T00:52:06;6.82;;;2.70;;
72949;SDS011;64868;45.710;9.590;2023-09-19T00:54:38;7.05;;;2.65;;
72949;SDS011;64868;45.710;9.590;2023-09-19T00:57:11;8.00;;;2.53;;
72949;SDS011;64868;45.710;9.590;2023-09-19T00:59:41;6.20;;;2.33;;
72949;SDS011;64868;45.710;9.590;2023-09-19T01:02:15;12.40;;;2.80;;
72949;SDS011;64868;45.710;9.590;2023-09-19T01:04:48;6.75;;;2.38;;
72949;SDS011;64868;45.710;9.590;2023-09-19T01:07:21;5.35;;;2.08;;
72949;SDS011;64868;45.710;9.590;2023-09-19T01:12:20;6.35;;;2.03;;
72949;SDS011;64868;45.710;9.590;2023-09-19T01:14:58;6.45;;;2.33;;
72949;SDS011;64868;45.710;9.590;2023-09-19T01:17:32;11.90;;;2.88;;
72949;SDS011;64868;45.710;9.590;2023-09-19T01:20:15;7.80;;;2.95;;
72949;SDS011;64868;45.710;9.590;2023-09-19T01:22:58;8.07;;;2.88;;
72949;SDS011;64868;45.710;9.590;2023-09-19T01:25:48;6.53;;;2.67;;
72949;SDS011;64868;45.710;9.590;2023-09-19T01:31:28;9.23;;;3.60;;
72949;SDS011;64868;45.710;9.590;2023-09-19T01:34:03;10.77;;;3.80;;
72949;SDS011;64868;45.710;9.590;2023-09-19T01:36:36;9.13;;;3.92;;
72949;SDS011;64868;45.710;9.590;2023-09-19T01:39:15;10.50;;;3.63;;
72949;SDS011;64868;45.710;9.590;2023-09-19T01:42:01;9.07;;;4.07;;
72949;SDS011;64868;45.710;9.590;2023-09-19T01:47:51;8.63;;;3.35;;
72949;SDS011;64868;45.710;9.590;2023-09-19T01:50:29;8.93;;;3.17;;
72949;SDS011;64868;45.710;9.590;2023-09-19T01:53:28;7.78;;;2.47;;
72949;SDS011;64868;45.710;9.590;2023-09-19T01:56:03;7.93;;;2.50;;
72949;SDS011;64868;45.710;9.590;2023-09-19T01:58:39;9.70;;;2.47;;
72949;SDS011;64868;45.710;9.590;2023-09-19T02:01:15;9.30;;;2.58;;
72949;SDS011;64868;45.710;9.590;2023-09-19T02:03:48;9.02;;;2.80;;
72949;SDS011;64868;45.710;9.590;2023-09-19T02:06:23;8.30;;;2.88;;
72949;SDS011;64868;45.710;9.590;2023-09-19T02:08:54;7.78;;;2.35;;
72949;SDS011;64868;45.710;9.590;2023-09-19T02:11:27;7.85;;;2.70;;
72949;SDS011;64868;45.710;9.590;2023-09-19T02:13:59;6.60;;;2.00;;
72949;SDS011;64868;45.710;9.590;2023-09-19T02:16:32;11.30;;;2.90;;
72949;SDS011;64868;45.710;9.590;2023-09-19T02:19:05;7.78;;;2.50;;
72949;SDS011;64868;45.710;9.590;2023-09-19T02:21:37;9.13;;;2.85;;
72949;SDS011;64868;45.710;9.590;2023-09-19T02:24:10;7.40;;;2.58;;
72949;SDS011;64868;45.710;9.590;2023-09-19T02:26:42;6.82;;;2.60;;
72949;SDS011;64868;45.710;9.590;2023-09-19T02:29:15;6.47;;;2.50;;
72949;SDS011;64868;45.710;9.590;2023-09-19T02:31:48;6.75;;;2.70;;
72949;SDS011;64868;45.710;9.590;2023-09-19T02:34:20;11.38;;;2.97;;
72949;SDS011;64868;45.710;9.590;2023-09-19T02:36:53;7.68;;;2.70;;
72949;SDS011;64868;45.710;9.590;2023-09-19T02:39:23;9.55;;;2.75;;
72949;SDS011;64868;45.710;9.590;2023-09-19T02:41:56;7.30;;;2.75;;
72949;SDS011;64868;45.710;9.590;2023-09-19T02:44:28;6.53;;;2.53;;
72949;SDS011;64868;45.710;9.590;2023-09-19T02:47:01;6.90;;;2.60;;
72949;SDS011;64868;45.710;9.590;2023-09-19T02:49:34;6.60;;;2.47;;
72949;SDS011;64868;45.710;9.590;2023-09-19T02:52:02;8.30;;;2.40;;
72949;SDS011;64868;45.710;9.590;2023-09-19T02:54:34;8.07;;;2.30;;
72949;SDS011;64868;45.710;9.590;2023-09-19T02:57:07;10.82;;;2.45;;
72949;SDS011;64868;45.710;9.590;2023-09-19T02:59:37;8.55;;;3.05;;
72949;SDS011;64868;45.710;9.590;2023-09-19T03:02:10;9.15;;;2.47;;
72949;SDS011;64868;45.710;9.590;2023-09-19T03:04:42;9.23;;;2.50;;
72949;SDS011;64868;45.710;9.590;2023-09-19T03:07:15;7.22;;;2.03;;
72949;SDS011;64868;45.710;9.590;2023-09-19T03:09:48;6.65;;;2.25;;
72949;SDS011;64868;45.710;9.590;2023-09-19T03:12:20;8.50;;;2.45;;
72949;SDS011;64868;45.710;9.590;2023-09-19T03:14:53;9.45;;;2.83;;
72949;SDS011;64868;45.710;9.590;2023-09-19T03:17:25;8.40;;;2.13;;
72949;SDS011;64868;45.710;9.590;2023-09-19T03:19:58;10.50;;;2.25;;
72949;SDS011;64868;45.710;9.590;2023-09-19T03:22:31;10.13;;;2.20;;
72949;SDS011;64868;45.710;9.590;2023-09-19T03:25:03;7.75;;;2.60;;
72949;SDS011;64868;45.710;9.590;2023-09-19T03:27:36;7.00;;;2.22;;
72949;SDS011;64868;45.710;9.590;2023-09-19T03:30:04;10.85;;;2.05;;
72949;SDS011;64868;45.710;9.590;2023-09-19T03:32:47;12.05;;;2.50;;
72949;SDS011;64868;45.710;9.590;2023-09-19T03:35:19;5.28;;;2.00;;
72949;SDS011;64868;45.710;9.590;2023-09-19T03:37:47;8.13;;;2.25;;
72949;SDS011;64868;45.710;9.590;2023-09-19T03:40:20;6.95;;;2.00;;
72949;SDS011;64868;45.710;9.590;2023-09-19T03:42:52;9.32;;;2.70;;
72949;SDS011;64868;45.710;9.590;2023-09-19T03:45:25;7.05;;;2.20;;
72949;SDS011;64868;45.710;9.590;2023-09-19T03:47:55;6.78;;;2.67;;
72949;SDS011;64868;45.710;9.590;2023-09-19T03:50:28;8.02;;;2.85;;
72949;SDS011;64868;45.710;9.590;2023-09-19T03:53:00;8.20;;;2.47;;
72949;SDS011;64868;45.710;9.590;2023-09-19T03:55:33;7.45;;;2.33;;
72949;SDS011;64868;45.710;9.590;2023-09-19T03:58:03;8.18;;;2.35;;
72949;SDS011;64868;45.710;9.590;2023-09-19T04:00:35;7.88;;;2.70;;
72949;SDS011;64868;45.710;9.590;2023-09-19T04:03:08;8.10;;;2.25;;
72949;SDS011;64868;45.710;9.590;2023-09-19T04:05:46;8.68;;;2.20;;
72949;SDS011;64868;45.710;9.590;2023-09-19T04:08:16;7.85;;;2.50;;
72949;SDS011;64868;45.710;9.590;2023-09-19T04:10:47;7.43;;;2.05;;
72949;SDS011;64868;45.710;9.590;2023-09-19T04:13:19;7.75;;;2.70;;
72949;SDS011;64868;45.710;9.590;2023-09-19T04:15:47;9.30;;;2.50;;
72949;SDS011;64868;45.710;9.590;2023-09-19T04:18:20;7.10;;;2.33;;
72949;SDS011;64868;45.710;9.590;2023-09-19T04:20:55;8.35;;;2.60;;
72949;SDS011;64868;45.710;9.590;2023-09-19T04:23:28;10.80;;;2.75;;
72949;SDS011;64868;45.710;9.590;2023-09-19T04:26:01;8.02;;;2.40;;
72949;SDS011;64868;45.710;9.590;2023-09-19T04:28:33;9.27;;;2.60;;
72949;SDS011;64868;45.710;9.590;2023-09-19T04:31:06;6.07;;;2.45;;
72949;SDS011;64868;45.710;9.590;2023-09-19T04:33:36;8.75;;;2.88;;
72949;SDS011;64868;45.710;9.590;2023-09-19T04:36:09;8.27;;;2.85;;
72949;SDS011;64868;45.710;9.590;2023-09-19T04:38:39;8.23;;;2.30;;
72949;SDS011;64868;45.710;9.590;2023-09-19T04:41:10;7.22;;;2.72;;
72949;SDS011;64868;45.710;9.590;2023-09-19T04:43:43;6.72;;;2.40;;
72949;SDS011;64868;45.710;9.590;2023-09-19T04:46:16;7.25;;;2.20;;
72949;SDS011;64868;45.710;9.590;2023-09-19T04:48:46;7.93;;;2.63;;
72949;SDS011;64868;45.710;9.590;2023-09-19T04:51:16;8.45;;;2.85;;
72949;SDS011;64868;45.710;9.590;2023-09-19T04:53:48;7.30;;;2.75;;
72949;SDS011;64868;45.710;9.590;2023-09-19T04:56:19;7.88;;;2.80;;
72949;SDS011;64868;45.710;9.590;2023-09-19T04:58:51;8.48;;;2.95;;
72949;SDS011;64868;45.710;9.590;2023-09-19T05:01:24;9.38;;;3.25;;
72949;SDS011;64868;45.710;9.590;2023-09-19T05:03:54;8.13;;;2.90;;
72949;SDS011;64868;45.710;9.590;2023-09-19T05:06:27;8.27;;;2.95;;
72949;SDS011;64868;45.710;9.590;2023-09-19T05:09:00;7.95;;;3.20;;
72949;SDS011;64868;45.710;9.590;2023-09-19T05:11:32;8.95;;;2.95;;
72949;SDS011;64868;45.710;9.590;2023-09-19T05:14:05;7.97;;;3.05;;
72949;SDS011;64868;45.710;9.590;2023-09-19T05:16:38;8.60;;;3.03;;
72949;SDS011;64868;45.710;9.590;2023-09-19T05:19:11;13.18;;;3.03;;
72949;SDS011;64868;45.710;9.590;2023-09-19T05:21:44;7.35;;;2.40;;
72949;SDS011;64868;45.710;9.590;2023-09-19T05:24:14;11.13;;;2.72;;
72949;SDS011;64868;45.710;9.590;2023-09-19T05:26:47;12.90;;;3.20;;
72949;SDS011;64868;45.710;9.590;2023-09-19T05:29:14;11.70;;;3.25;;
72949;SDS011;64868;45.710;9.590;2023-09-19T05:31:47;6.88;;;2.50;;
72949;SDS011;64868;45.710;9.590;2023-09-19T05:34:17;7.45;;;2.50;;
72949;SDS011;64868;45.710;9.590;2023-09-19T05:36:47;9.77;;;2.90;;
72949;SDS011;64868;45.710;9.590;2023-09-19T05:39:19;7.72;;;2.70;;
72949;SDS011;64868;45.710;9.590;2023-09-19T05:41:51;9.15;;;2.67;;
72949;SDS011;64868;45.710;9.590;2023-09-19T05:44:24;6.88;;;2.33;;
72949;SDS011;64868;45.710;9.590;2023-09-19T05:46:57;6.80;;;2.15;;
72949;SDS011;64868;45.710;9.590;2023-09-19T05:49:29;8.95;;;2.97;;
72949;SDS011;64868;45.710;9.590;2023-09-19T05:52:02;7.63;;;2.20;;
72949;SDS011;64868;45.710;9.590;2023-09-19T05:54:30;9.25;;;2.40;;
72949;SDS011;64868;45.710;9.590;2023-09-19T05:57:02;7.30;;;2.10;;
72949;SDS011;64868;45.710;9.590;2023-09-19T05:59:35;10.18;;;2.50;;
72949;SDS011;64868;45.710;9.590;2023-09-19T06:02:07;9.15;;;2.58;;
72949;SDS011;64868;45.710;9.590;2023-09-19T06:04:38;10.05;;;2.65;;
72949;SDS011;64868;45.710;9.590;2023-09-19T06:07:09;7.32;;;2.40;;
72949;SDS011;64868;45.710;9.590;2023-09-19T06:09:41;8.20;;;2.58;;
72949;SDS011;64868;45.710;9.590;2023-09-19T06:12:11;10.38;;;2.10;;
72949;SDS011;64868;45.710;9.590;2023-09-19T06:14:44;9.77;;;2.75;;
72949;SDS011;64868;45.710;9.590;2023-09-19T06:17:17;8.23;;;2.30;;
72949;SDS011;64868;45.710;9.590;2023-09-19T06:19:50;9.38;;;2.47;;
72949;SDS011;64868;45.710;9.590;2023-09-19T06:22:20;8.32;;;2.75;;
72949;SDS011;64868;45.710;9.590;2023-09-19T06:24:50;9.13;;;2.60;;
72949;SDS011;64868;45.710;9.590;2023-09-19T06:27:23;11.23;;;2.60;;
72949;SDS011;64868;45.710;9.590;2023-09-19T06:29:56;11.13;;;2.65;;
72949;SDS011;64868;45.710;9.590;2023-09-19T06:32:30;7.53;;;2.28;;
72949;SDS011;64868;45.710;9.590;2023-09-19T06:35:02;11.95;;;2.50;;
72949;SDS011;64868;45.710;9.590;2023-09-19T06:37:35;9.38;;;2.60;;
72949;SDS011;64868;45.710;9.590;2023-09-19T06:40:08;9.10;;;2.83;;
72949;SDS011;64868;45.710;9.590;2023-09-19T06:42:49;8.00;;;2.22;;
72949;SDS011;64868;45.710;9.590;2023-09-19T06:45:20;9.95;;;2.47;;
72949;SDS011;64868;45.710;9.590;2023-09-19T06:47:50;9.35;;;1.95;;
72949;SDS011;64868;45.710;9.590;2023-09-19T06:50:24;9.35;;;2.20;;
72949;SDS011;64868;45.710;9.590;2023-09-19T06:52:58;11.68;;;1.80;;
72949;SDS011;64868;45.710;9.590;2023-09-19T06:55:26;7.88;;;1.92;;
72949;SDS011;64868;45.710;9.590;2023-09-19T06:57:59;9.00;;;1.92;;
72949;SDS011;64868;45.710;9.590;2023-09-19T07:00:32;8.98;;;2.13;;
72949;SDS011;64868;45.710;9.590;2023-09-19T07:03:04;6.80;;;1.85;;
72949;SDS011;64868;45.710;9.590;2023-09-19T07:05:38;9.27;;;1.50;;
72949;SDS011;64868;45.710;9.590;2023-09-19T07:08:11;7.88;;;1.80;;
72949;SDS011;64868;45.710;9.590;2023-09-19T07:10:44;8.68;;;1.83;;
72949;SDS011;64868;45.710;9.590;2023-09-19T07:13:17;6.35;;;1.40;;
72949;SDS011;64868;45.710;9.590;2023-09-19T07:15:47;9.15;;;1.90;;
72949;SDS011;64868;45.710;9.590;2023-09-19T07:18:18;11.07;;;1.50;;
72949;SDS011;64868;45.710;9.590;2023-09-19T07:20:50;8.25;;;1.73;;
72949;SDS011;64868;45.710;9.590;2023-09-19T07:23:21;6.53;;;1.85;;
72949;SDS011;64868;45.710;9.590;2023-09-19T07:25:56;9.07;;;1.60;;
72949;SDS011;64868;45.710;9.590;2023-09-19T07:28:28;10.25;;;1.60;;
72949;SDS011;64868;45.710;9.590;2023-09-19T07:31:01;6.90;;;1.52;;
72949;SDS011;64868;45.710;9.590;2023-09-19T07:33:34;7.20;;;1.50;;
72949;SDS011;64868;45.710;9.590;2023-09-19T07:36:07;6.88;;;1.55;;
72949;SDS011;64868;45.710;9.590;2023-09-19T07:38:39;7.50;;;1.58;;
72949;SDS011;64868;45.710;9.590;2023-09-19T07:41:09;8.80;;;2.00;;
72949;SDS011;64868;45.710;9.590;2023-09-19T07:43:42;9.15;;;1.80;;
72949;SDS011;64868;45.710;9.590;2023-09-19T07:46:15;5.63;;;1.40;;
72949;SDS011;64868;45.710;9.590;2023-09-19T07:48:45;9.38;;;1.63;;
72949;SDS011;64868;45.710;9.590;2023-09-19T07:51:16;6.85;;;1.65;;
72949;SDS011;64868;45.710;9.590;2023-09-19T07:53:48;7.05;;;1.70;;
72949;SDS011;64868;45.710;9.590;2023-09-19T07:56:21;8.23;;;1.75;;
72949;SDS011;64868;45.710;9.590;2023-09-19T07:58:54;8.23;;;1.33;;
72949;SDS011;64868;45.710;9.590;2023-09-19T08:01:24;10.90;;;1.83;;
72949;SDS011;64868;45.710;9.590;2023-09-19T08:03:55;7.32;;;1.58;;
72949;SDS011;64868;45.710;9.590;2023-09-19T08:06:25;7.38;;;1.90;;
72949;SDS011;64868;45.710;9.590;2023-09-19T08:08:57;7.72;;;1.83;;
72949;SDS011;64868;45.710;9.590;2023-09-19T08:11:34;10.80;;;1.75;;
72949;SDS011;64868;45.710;9.590;2023-09-19T08:14:07;6.25;;;1.60;;
72949;SDS011;64868;45.710;9.590;2023-09-19T08:16:39;6.97;;;1.60;;
72949;SDS011;64868;45.710;9.590;2023-09-19T08:19:12;7.75;;;1.50;;
72949;SDS011;64868;45.710;9.590;2023-09-19T08:21:44;6.55;;;1.65;;
72949;SDS011;64868;45.710;9.590;2023-09-19T08:24:17;6.93;;;1.60;;
72949;SDS011;64868;45.710;9.590;2023-09-19T08:26:47;9.07;;;1.77;;
72949;SDS011;64868;45.710;9.590;2023-09-19T08:29:20;10.93;;;1.88;;
72949;SDS011;64868;45.710;9.590;2023-09-19T08:31:54;8.95;;;1.80;;
72949;SDS011;64868;45.710;9.590;2023-09-19T08:34:28;10.45;;;1.95;;
72949;SDS011;64868;45.710;9.590;2023-09-19T08:37:00;8.32;;;1.63;;
72949;SDS011;64868;45.710;9.590;2023-09-19T08:39:33;10.27;;;1.75;;
72949;SDS011;64868;45.710;9.590;2023-09-19T08:42:05;8.27;;;1.88;;
72949;SDS011;64868;45.710;9.590;2023-09-19T08:44:38;9.80;;;1.80;;
72949;SDS011;64868;45.710;9.590;2023-09-19T08:47:11;7.03;;;1.50;;
72949;SDS011;64868;45.710;9.590;2023-09-19T08:50:01;8.63;;;1.80;;
72949;SDS011;64868;45.710;9.590;2023-09-19T08:52:44;8.48;;;2.00;;
72949;SDS011;64868;45.710;9.590;2023-09-19T08:55:21;8.13;;;1.75;;
72949;SDS011;64868;45.710;9.590;2023-09-19T08:58:03;8.52;;;1.65;;
72949;SDS011;64868;45.710;9.590;2023-09-19T09:00:35;6.63;;;1.75;;
72949;SDS011;64868;45.710;9.590;2023-09-19T09:03:09;7.32;;;1.80;;
72949;SDS011;64868;45.710;9.590;2023-09-19T09:05:41;12.13;;;2.10;;
72949;SDS011;64868;45.710;9.590;2023-09-19T09:08:16;12.35;;;1.92;;
72949;SDS011;64868;45.710;9.590;2023-09-19T09:10:49;23.35;;;2.50;;
72949;SDS011;64868;45.710;9.590;2023-09-19T09:13:20;9.90;;;2.05;;
72949;SDS011;64868;45.710;9.590;2023-09-19T09:15:54;8.13;;;2.13;;
72949;SDS011;64868;45.710;9.590;2023-09-19T09:18:26;9.05;;;1.90;;
72949;SDS011;64868;45.710;9.590;2023-09-19T09:21:00;7.50;;;2.00;;
72949;SDS011;64868;45.710;9.590;2023-09-19T09:23:32;8.38;;;1.75;;
72949;SDS011;64868;45.710;9.590;2023-09-19T09:26:02;9.00;;;2.03;;
72949;SDS011;64868;45.710;9.590;2023-09-19T09:28:32;8.60;;;2.08;;
72949;SDS011;64868;45.710;9.590;2023-09-19T09:31:05;12.70;;;2.22;;
72949;SDS011;64868;45.710;9.590;2023-09-19T09:33:52;8.45;;;2.92;;
72949;SDS011;64868;45.710;9.590;2023-09-19T09:36:37;11.00;;;2.10;;
72949;SDS011;64868;45.710;9.590;2023-09-19T09:39:11;10.65;;;2.63;;
72949;SDS011;64868;45.710;9.590;2023-09-19T09:41:52;9.48;;;2.72;;
72949;SDS011;64868;45.710;9.590;2023-09-19T09:44:22;9.90;;;2.80;;
72949;SDS011;64868;45.710;9.590;2023-09-19T09:46:52;19.38;;;3.30;;
72949;SDS011;64868;45.710;9.590;2023-09-19T09:49:42;17.23;;;3.33;;
72949;SDS011;64868;45.710;9.590;2023-09-19T09:52:21;10.13;;;2.50;;
72949;SDS011;64868;45.710;9.590;2023-09-19T09:55:02;10.80;;;2.53;;
72949;SDS011;64868;45.710;9.590;2023-09-19T09:57:35;9.75;;;2.75;;
72949;SDS011;64868;45.710;9.590;2023-09-19T10:00:09;8.80;;;2.80;;
72949;SDS011;64868;45.710;9.590;2023-09-19T10:02:40;12.57;;;2.63;;
72949;SDS011;64868;45.710;9.590;2023-09-19T10:05:15;10.98;;;2.83;;
72949;SDS011;64868;45.710;9.590;2023-09-19T10:07:54;9.23;;;2.80;;
72949;SDS011;64868;45.710;9.590;2023-09-19T10:10:40;9.50;;;2.67;;
72949;SDS011;64868;45.710;9.590;2023-09-19T10:13:13;11.18;;;2.60;;
72949;SDS011;64868;45.710;9.590;2023-09-19T10:15:45;11.95;;;2.55;;
72949;SDS011;64868;45.710;9.590;2023-09-19T10:18:23;8.60;;;2.25;;
72949;SDS011;64868;45.710;9.590;2023-09-19T10:20:56;9.27;;;2.65;;
72949;SDS011;64868;45.710;9.590;2023-09-19T10:23:31;7.93;;;2.42;;
72949;SDS011;64868;45.710;9.590;2023-09-19T10:26:04;10.15;;;2.85;;
72949;SDS011;64868;45.710;9.590;2023-09-19T10:28:34;10.40;;;3.10;;
72949;SDS011;64868;45.710;9.590;2023-09-19T10:31:07;11.38;;;3.00;;
72949;SDS011;64868;45.710;9.590;2023-09-19T10:33:41;12.27;;;2.65;;
72949;SDS011;64868;45.710;9.590;2023-09-19T10:36:16;10.15;;;2.58;;
72949;SDS011;64868;45.710;9.590;2023-09-19T10:38:51;12.07;;;3.05;;
72949;SDS011;64868;45.710;9.590;2023-09-19T10:41:25;9.65;;;2.63;;
72949;SDS011;64868;45.710;9.590;2023-09-19T10:43:59;9.43;;;2.67;;
72949;SDS011;64868;45.710;9.590;2023-09-19T10:46:32;8.73;;;2.28;;
72949;SDS011;64868;45.710;9.590;2023-09-19T10:49:11;14.02;;;2.50;;
72949;SDS011;64868;45.710;9.590;2023-09-19T10:51:43;10.68;;;2.70;;
72949;SDS011;64868;45.710;9.590;2023-09-19T10:54:18;9.30;;;2.42;;
72949;SDS011;64868;45.710;9.590;2023-09-19T10:56:54;9.50;;;2.30;;
72949;SDS011;64868;45.710;9.590;2023-09-19T10:59:26;9.07;;;2.70;;
72949;SDS011;64868;45.710;9.590;2023-09-19T11:02:01;10.02;;;2.90;;
72949;SDS011;64868;45.710;9.590;2023-09-19T11:04:47;11.88;;;2.80;;
72949;SDS011;64868;45.710;9.590;2023-09-19T11:07:17;11.02;;;3.22;;
72949;SDS011;64868;45.710;9.590;2023-09-19T11:09:48;12.00;;;2.80;;
72949;SDS011;64868;45.710;9.590;2023-09-19T11:15:06;9.63;;;2.90;;
72949;SDS011;64868;45.710;9.590;2023-09-19T11:17:42;10.98;;;3.08;;
72949;SDS011;64868;45.710;9.590;2023-09-19T11:25:43;13.15;;;4.28;;
72949;SDS011;64868;45.710;9.590;2023-09-19T11:30:58;12.75;;;3.10;;
72949;SDS011;64868;45.710;9.590;2023-09-19T11:33:49;11.88;;;2.80;;
72949;SDS011;64868;45.710;9.590;2023-09-19T11:36:55;10.60;;;3.13;;
72949;SDS011;64868;45.710;9.590;2023-09-19T11:39:27;10.60;;;3.80;;
72949;SDS011;64868;45.710;9.590;2023-09-19T11:41:59;8.60;;;3.40;;
72949;SDS011;64868;45.710;9.590;2023-09-19T11:44:49;7.20;;;2.90;;
72949;SDS011;64868;45.710;9.590;2023-09-19T11:47:23;10.35;;;3.13;;
72949;SDS011;64868;45.710;9.590;2023-09-19T11:49:56;9.25;;;2.75;;
72949;SDS011;64868;45.710;9.590;2023-09-19T11:52:30;9.70;;;3.03;;
72949;SDS011;64868;45.710;9.590;2023-09-19T11:55:05;11.57;;;3.17;;
72949;SDS011;64868;45.710;9.590;2023-09-19T11:57:38;12.52;;;3.35;;
72949;SDS011;64868;45.710;9.590;2023-09-19T12:00:10;10.35;;;3.15;;
72949;SDS011;64868;45.710;9.590;2023-09-19T12:02:47;9.73;;;3.00;;
72949;SDS011;64868;45.710;9.590;2023-09-19T12:05:30;13.82;;;2.90;;
72949;SDS011;64868;45.710;9.590;2023-09-19T12:08:03;9.77;;;3.20;;
72949;SDS011;64868;45.710;9.590;2023-09-19T12:10:49;12.48;;;3.70;;
72949;SDS011;64868;45.710;9.590;2023-09-19T12:13:23;9.05;;;3.35;;
72949;SDS011;64868;45.710;9.590;2023-09-19T12:15:57;9.38;;;3.10;;
72949;SDS011;64868;45.710;9.590;2023-09-19T12:18:29;8.82;;;3.20;;
72949;SDS011;64868;45.710;9.590;2023-09-19T12:21:00;10.23;;;2.60;;
72949;SDS011;64868;45.710;9.590;2023-09-19T12:23:30;15.68;;;3.55;;
72949;SDS011;64868;45.710;9.590;2023-09-19T12:26:01;11.80;;;3.47;;
72949;SDS011;64868;45.710;9.590;2023-09-19T12:28:40;32.05;;;4.15;;
72949;SDS011;64868;45.710;9.590;2023-09-19T12:31:14;18.08;;;3.30;;
72949;SDS011;64868;45.710;9.590;2023-09-19T12:33:47;10.00;;;2.80;;
72949;SDS011;64868;45.710;9.590;2023-09-19T12:36:23;10.98;;;3.08;;
72949;SDS011;64868;45.710;9.590;2023-09-19T12:38:56;9.68;;;2.85;;
72949;SDS011;64868;45.710;9.590;2023-09-19T12:41:27;9.23;;;3.03;;
72949;SDS011;64868;45.710;9.590;2023-09-19T12:43:59;8.27;;;2.70;;
72949;SDS011;64868;45.710;9.590;2023-09-19T12:49:22;10.73;;;2.80;;
72949;SDS011;64868;45.710;9.590;2023-09-19T12:51:54;10.65;;;3.80;;
72949;SDS011;64868;45.710;9.590;2023-09-19T12:54:27;10.00;;;3.40;;
72949;SDS011;64868;45.710;9.590;2023-09-19T12:57:07;18.40;;;3.85;;
72949;SDS011;64868;45.710;9.590;2023-09-19T12:59:37;20.67;;;4.90;;
72949;SDS011;64868;45.710;9.590;2023-09-19T13:02:07;11.70;;;3.70;;
72949;SDS011;64868;45.710;9.590;2023-09-19T13:04:51;12.70;;;3.65;;
72949;SDS011;64868;45.710;9.590;2023-09-19T13:07:42;10.00;;;3.30;;
72949;SDS011;64868;45.710;9.590;2023-09-19T13:10:16;10.68;;;3.50;;
72949;SDS011;64868;45.710;9.590;2023-09-19T13:12:51;11.38;;;3.72;;
72949;SDS011;64868;45.710;9.590;2023-09-19T13:15:22;10.57;;;3.58;;
72949;SDS011;64868;45.710;9.590;2023-09-19T13:17:54;10.80;;;3.53;;
72949;SDS011;64868;45.710;9.590;2023-09-19T13:20:27;9.13;;;3.78;;
72949;SDS011;64868;45.710;9.590;2023-09-19T13:23:00;10.82;;;3.63;;
72949;SDS011;64868;45.710;9.590;2023-09-19T13:25:35;10.65;;;4.07;;
72949;SDS011;64868;45.710;9.590;2023-09-19T13:28:07;12.50;;;3.83;;
72949;SDS011;64868;45.710;9.590;2023-09-19T13:30:40;10.93;;;3.53;;
72949;SDS011;64868;45.710;9.590;2023-09-19T13:33:12;10.50;;;3.60;;
72949;SDS011;64868;45.710;9.590;2023-09-19T13:35:48;13.38;;;3.92;;
72949;SDS011;64868;45.710;9.590;2023-09-19T13:38:20;12.88;;;4.22;;
72949;SDS011;64868;45.710;9.590;2023-09-19T13:40:51;12.52;;;3.75;;
72949;SDS011;64868;45.710;9.590;2023-09-19T13:43:21;9.38;;;3.65;;
72949;SDS011;64868;45.710;9.590;2023-09-19T13:45:54;9.48;;;3.40;;
72949;SDS011;64868;45.710;9.590;2023-09-19T13:48:24;10.40;;;3.25;;
72949;SDS011;64868;45.710;9.590;2023-09-19T13:50:57;12.05;;;3.58;;
72949;SDS011;64868;45.710;9.590;2023-09-19T13:53:29;10.65;;;3.63;;
72949;SDS011;64868;45.710;9.590;2023-09-19T13:56:02;10.57;;;3.60;;
72949;SDS011;64868;45.710;9.590;2023-09-19T13:58:35;9.90;;;3.22;;
72949;SDS011;64868;45.710;9.590;2023-09-19T14:01:05;10.18;;;4.00;;
72949;SDS011;64868;45.710;9.590;2023-09-19T14:03:41;10.95;;;3.45;;
72949;SDS011;64868;45.710;9.590;2023-09-19T14:06:17;10.48;;;2.92;;
72949;SDS011;64868;45.710;9.590;2023-09-19T14:08:49;12.00;;;3.83;;
72949;SDS011;64868;45.710;9.590;2023-09-19T14:11:22;13.85;;;3.47;;
72949;SDS011;64868;45.710;9.590;2023-09-19T14:13:52;14.32;;;3.55;;
72949;SDS011;64868;45.710;9.590;2023-09-19T14:16:24;13.70;;;3.58;;
72949;SDS011;64868;45.710;9.590;2023-09-19T14:18:56;12.80;;;3.75;;
72949;SDS011;64868;45.710;9.590;2023-09-19T14:21:29;11.43;;;3.30;;
72949;SDS011;64868;45.710;9.590;2023-09-19T14:24:02;11.60;;;3.70;;
72949;SDS011;64868;45.710;9.590;2023-09-19T14:26:36;12.02;;;3.60;;
72949;SDS011;64868;45.710;9.590;2023-09-19T14:29:06;9.85;;;3.30;;
72949;SDS011;64868;45.710;9.590;2023-09-19T14:31:39;11.27;;;4.40;;
72949;SDS011;64868;45.710;9.590;2023-09-19T14:34:11;11.45;;;3.67;;
72949;SDS011;64868;45.710;9.590;2023-09-19T14:36:44;12.65;;;3.95;;
72949;SDS011;64868;45.710;9.590;2023-09-19T14:39:17;12.02;;;3.38;;
72949;SDS011;64868;45.710;9.590;2023-09-19T14:41:50;14.20;;;4.25;;
72949;SDS011;64868;45.710;9.590;2023-09-19T14:44:22;10.20;;;3.70;;
72949;SDS011;64868;45.710;9.590;2023-09-19T14:46:55;10.70;;;3.53;;
72949;SDS011;64868;45.710;9.590;2023-09-19T14:49:28;15.63;;;3.95;;
72949;SDS011;64868;45.710;9.590;2023-09-19T14:52:02;13.27;;;4.47;;
72949;SDS011;64868;45.710;9.590;2023-09-19T14:54:32;9.98;;;3.63;;
72949;SDS011;64868;45.710;9.590;2023-09-19T14:57:02;11.93;;;3.65;;
72949;SDS011;64868;45.710;9.590;2023-09-19T14:59:35;10.45;;;3.70;;
72949;SDS011;64868;45.710;9.590;2023-09-19T15:02:08;15.50;;;3.78;;
72949;SDS011;64868;45.710;9.590;2023-09-19T15:04:41;10.57;;;3.50;;
72949;SDS011;64868;45.710;9.590;2023-09-19T15:07:11;10.00;;;3.65;;
72949;SDS011;64868;45.710;9.590;2023-09-19T15:09:41;10.85;;;3.50;;
72949;SDS011;64868;45.710;9.590;2023-09-19T15:12:14;11.23;;;3.70;;
72949;SDS011;64868;45.710;9.590;2023-09-19T15:14:46;10.00;;;3.45;;
72949;SDS011;64868;45.710;9.590;2023-09-19T15:17:16;10.23;;;3.60;;
72949;SDS011;64868;45.710;9.590;2023-09-19T15:19:49;9.30;;;3.60;;
72949;SDS011;64868;45.710;9.590;2023-09-19T15:22:22;10.40;;;3.53;;
72949;SDS011;64868;45.710;9.590;2023-09-19T15:24:54;10.93;;;3.40;;
72949;SDS011;64868;45.710;9.590;2023-09-19T15:27:27;8.13;;;3.33;;
72949;SDS011;64868;45.710;9.590;2023-09-19T15:29:57;9.80;;;3.55;;
72949;SDS011;64868;45.710;9.590;2023-09-19T15:32:33;11.65;;;3.97;;
72949;SDS011;64868;45.710;9.590;2023-09-19T15:35:06;9.32;;;3.33;;
72949;SDS011;64868;45.710;9.590;2023-09-19T15:37:38;8.55;;;3.58;;
72949;SDS011;64868;45.710;9.590;2023-09-19T15:40:11;10.18;;;3.90;;
72949;SDS011;64868;45.710;9.590;2023-09-19T15:42:44;10.57;;;4.00;;